Time;durP1;ratioP1;P1;durP2;ratioP2;P2;SDS_P1;SDS_P2;PMS_P1;PMS_P2;Temp;Humidity;BMP_temperature;BMP_pressure;BME280_temperature;BME280_humidity;BME280_pressure;Samples;Min_cycle;Max_cycle;Signal;HPM_P1;HPM_P2
2023/08/15 00:02:18;;;;;;;6.97;5.10;;;;;;;21.16;100.00;97713.78;18229384;32;20069;-57
2023/08/15 00:12:21;;;;;;;5.03;4.53;;;;;;;21.10;100.00;97695.88;18229846;32;20051;-57
2023/08/15 00:22:23;;;;;;;7.18;4.65;;;;;;;21.00;100.00;97691.59;18230653;32;20091;-57
2023/08/15 00:32:26;;;;;;;5.50;4.85;;;;;;;20.91;100.00;97677.94;18239559;32;20172;-57
2023/08/15 00:42:29;;;;;;;6.07;5.00;;;;;;;20.77;100.00;97674.69;18237727;32;20094;-57
2023/08/15 00:52:31;;;;;;;8.60;5.10;;;;;;;20.68;100.00;97673.91;18238608;32;20058;-57
2023/08/15 01:02:34;;;;;;;6.30;5.57;;;;;;;20.57;100.00;97665.28;18238349;32;20077;-57
2023/08/15 01:13:08;;;;;;;6.15;5.12;;;;;;;20.45;100.00;97646.81;18238036;32;20050;-57
2023/08/15 01:23:14;;;;;;;8.03;4.90;;;;;;;20.36;100.00;97643.31;18237465;32;20363;-57
2023/08/15 01:33:44;;;;;;;6.37;4.72;;;;;;;20.26;100.00;97648.06;18236340;32;20067;-57
2023/08/15 01:43:47;;;;;;;8.02;5.00;;;;;;;20.22;100.00;97635.34;18236585;32;20070;-57
2023/08/15 01:53:50;;;;;;;6.37;5.22;;;;;;;20.11;100.00;97622.00;18235554;32;20050;-57
2023/08/15 02:03:52;;;;;;;6.10;5.32;;;;;;;20.04;100.00;97619.00;18235580;32;20066;-57
2023/08/15 02:13:55;;;;;;;9.10;5.00;;;;;;;19.92;100.00;97627.16;18235451;32;20081;-57
2023/08/15 02:23:58;;;;;;;8.70;5.33;;;;;;;19.78;100.00;97635.59;18234781;32;20066;-57
2023/08/15 02:34:00;;;;;;;10.13;5.73;;;;;;;19.68;100.00;97635.97;18233048;32;20114;-57
2023/08/15 02:44:02;;;;;;;5.57;4.50;;;;;;;19.62;100.00;97624.38;18233227;32;20045;-57
2023/08/15 02:54:05;;;;;;;7.93;5.07;;;;;;;19.58;100.00;97632.50;18232268;32;20050;-57
2023/08/15 03:04:09;;;;;;;7.97;4.87;;;;;;;19.57;100.00;97644.59;18233103;32;20073;-57
2023/08/15 03:14:11;;;;;;;9.20;4.80;;;;;;;19.58;100.00;97635.25;18232520;32;20055;-57
2023/08/15 03:24:13;;;;;;;8.70;5.53;;;;;;;19.65;100.00;97634.69;18230723;32;20109;-57
2023/08/15 03:34:16;;;;;;;5.47;4.97;;;;;;;19.71;100.00;97627.09;18231591;32;20055;-57
2023/08/15 03:44:18;;;;;;;6.47;5.13;;;;;;;19.64;100.00;97650.34;18231036;32;20051;-57
2023/08/15 03:54:21;;;;;;;8.88;5.10;;;;;;;19.65;100.00;97670.34;18230665;32;20367;-57
2023/08/15 04:04:23;;;;;;;8.43;5.00;;;;;;;19.66;100.00;97673.91;18238689;32;20450;-57
2023/08/15 04:14:26;;;;;;;5.87;5.13;;;;;;;19.68;100.00;97693.56;18239505;32;20054;-57
2023/08/15 04:24:29;;;;;;;5.77;5.17;;;;;;;19.70;100.00;97696.81;18238857;32;20054;-57
2023/08/15 04:34:31;;;;;;;5.30;4.57;;;;;;;19.70;100.00;97714.06;18239735;32;20050;-57
2023/08/15 04:44:34;;;;;;;6.13;5.20;;;;;;;19.74;100.00;97725.19;18237930;32;20062;-57
2023/08/15 04:54:36;;;;;;;10.43;5.53;;;;;;;19.79;100.00;97736.00;18239052;32;20058;-57
2023/08/15 05:04:39;;;;;;;7.57;5.57;;;;;;;19.85;100.00;97755.84;18238323;32;20093;-57
2023/08/15 05:14:44;;;;;;;7.43;5.50;;;;;;;19.90;100.00;97753.72;18237852;32;20066;-57
2023/08/15 05:24:47;;;;;;;5.85;5.15;;;;;;;19.97;100.00;97767.72;18237493;32;20066;-57
2023/08/15 05:34:51;;;;;;;6.55;5.45;;;;;;;20.04;100.00;97788.38;18236015;32;20066;-57
2023/08/15 05:44:54;;;;;;;5.90;5.20;;;;;;;20.13;100.00;97811.09;18235193;32;20054;-57
2023/08/15 05:54:58;;;;;;;7.15;5.75;;;;;;;20.24;100.00;97820.59;18236262;32;20426;-57
2023/08/15 06:05:03;;;;;;;5.75;5.00;;;;;;;20.56;100.00;97826.56;18235787;32;20124;-57
2023/08/15 06:15:06;;;;;;;5.15;4.65;;;;;;;20.81;100.00;97838.53;18235264;32;20103;-57
2023/08/15 06:25:09;;;;;;;;;;;;;;;21.11;100.00;97867.94;18235161;32;20484;-57
2023/08/15 06:35:12;;;;;;;6.93;5.55;;;;;;;21.64;100.00;97858.13;18233639;32;19993;-57
2023/08/15 06:45:19;;;;;;;5.32;4.82;;;;;;;22.04;100.00;97889.00;18233134;32;20067;-57
2023/08/15 06:55:25;;;;;;;6.07;5.40;;;;;;;22.07;100.00;97886.34;18233730;32;20482;-57
2023/08/15 07:05:32;;;;;;;6.30;5.70;;;;;;;21.99;100.00;97901.00;18232703;32;20416;-57
2023/08/15 07:15:38;;;;;;;6.40;5.05;;;;;;;22.18;100.00;97912.28;18231424;32;20062;-57
2023/08/15 07:25:43;;;;;;;5.85;5.25;;;;;;;22.49;100.00;97918.47;18230789;32;20070;-57
2023/08/15 07:35:48;;;;;;;8.25;5.05;;;;;;;22.56;100.00;97924.22;18237403;32;20050;-58
2023/08/15 07:45:52;;;;;;;7.78;5.87;;;;;;;22.63;100.00;97929.16;18241720;32;20055;-57
2023/08/15 07:55:57;;;;;;;13.15;6.00;;;;;;;22.99;100.00;97936.63;18240113;32;20430;-57
2023/08/15 08:06:09;;;;;;;5.62;4.37;;;;;;;24.00;100.00;97922.25;18240621;32;20446;-58
2023/08/15 08:16:48;;;;;;;5.25;3.33;;;;;;;24.73;100.00;97924.94;18240460;32;20050;-57
2023/08/15 08:27:02;;;;;;;4.18;1.87;;;;;;;25.32;100.00;97940.53;18239948;32;20122;-57
2023/08/15 08:37:21;;;;;;;6.90;1.95;;;;;;;25.93;94.10;97934.69;18238566;32;20407;-57
2023/08/15 08:47:31;;;;;;;2.87;1.83;;;;;;;26.26;100.00;97920.31;18238730;32;20051;-57
2023/08/15 08:57:36;;;;;;;3.05;1.92;;;;;;;26.32;100.00;97918.81;18237350;32;20066;-57
2023/08/15 09:07:52;;;;;;;1.83;1.50;;;;;;;26.43;91.79;97930.09;18238348;32;20050;-57
2023/08/15 09:18:01;;;;;;;2.70;1.45;;;;;;;26.21;100.00;97948.31;18237997;32;20054;-57
2023/08/15 09:28:40;;;;;;;3.85;1.80;;;;;;;26.11;100.00;97951.69;18237330;32;20122;-57
2023/08/15 09:39:15;;;;;;;3.15;2.12;;;;;;;26.28;92.97;97967.06;18236575;32;20046;-57
2023/08/15 09:49:20;;;;;;;3.35;2.30;;;;;;;26.35;90.45;97973.53;18236729;32;20478;-57
2023/08/15 09:59:24;;;;;;;3.03;2.10;;;;;;;26.46;92.37;97964.59;18221465;32;20107;-57
2023/08/15 10:09:31;;;;;;;3.12;2.30;;;;;;;26.67;80.55;97958.66;18234196;32;20058;-57
2023/08/15 10:19:45;;;;;;;4.43;1.90;;;;;;;26.85;73.08;97945.88;18235756;32;20085;-57
2023/08/15 10:29:52;;;;;;;2.47;2.22;;;;;;;27.17;69.64;97944.78;18234841;32;20055;-57
2023/08/15 10:40:12;;;;;;;2.78;1.83;;;;;;;27.42;82.24;97939.59;18233383;32;20065;-57
2023/08/15 10:50:21;;;;;;;2.62;1.90;;;;;;;27.45;78.21;97943.59;18233514;32;20080;-57
2023/08/15 11:00:49;;;;;;;2.08;1.70;;;;;;;27.22;85.27;97953.59;18098881;32;20105;-57
2023/08/15 11:10:53;;;;;;;2.97;2.00;;;;;;;27.08;83.37;97947.84;18098380;32;20101;-57
2023/08/15 11:20:58;;;;;;;2.65;1.95;;;;;;;26.92;77.08;97944.41;18097817;32;20059;-57
2023/08/15 11:31:12;;;;;;;2.62;1.90;;;;;;;27.15;86.66;97955.47;18124201;32;20063;-57
2023/08/15 11:41:25;;;;;;;2.90;1.70;;;;;;;27.17;84.56;97951.13;18230951;32;20065;-57
2023/08/15 11:51:29;;;;;;;3.00;1.90;;;;;;;27.37;82.82;97937.97;18217484;32;20047;-57
2023/08/15 12:01:43;;;;;;;3.35;1.95;;;;;;;27.37;77.25;97915.75;18230573;32;20059;-57
2023/08/15 12:11:53;;;;;;;3.15;1.90;;;;;;;27.67;88.70;97914.13;18230077;32;20126;-57
2023/08/15 12:21:56;;;;;;;4.75;1.90;;;;;;;27.92;82.49;97908.88;18234938;32;20072;-57
2023/08/15 12:32:01;;;;;;;2.42;1.87;;;;;;;28.27;81.19;97913.22;18239758;32;20063;-57
2023/08/15 12:42:06;;;;;;;2.40;1.77;;;;;;;28.82;84.10;97918.13;18239478;32;20438;-57
2023/08/15 12:52:11;;;;;;;5.05;2.12;;;;;;;28.76;64.31;97902.94;18237812;32;20083;-57
2023/08/15 13:02:15;;;;;;;3.78;1.70;;;;;;;28.39;73.82;97889.91;18238386;32;20096;-57
2023/08/15 13:12:19;;;;;;;2.45;1.70;;;;;;;28.68;68.13;97882.63;18238068;32;20118;-57
2023/08/15 13:22:24;;;;;;;2.95;2.05;;;;;;;28.33;73.89;97883.91;18236619;32;20332;-57
2023/08/15 13:32:28;;;;;;;3.10;2.20;;;;;;;28.24;75.65;97880.63;18234777;32;20074;-57
2023/08/15 13:42:31;;;;;;;4.72;2.10;;;;;;;28.59;94.13;97873.78;18235332;32;20077;-57
2023/08/15 13:52:42;;;;;;;3.03;2.07;;;;;;;29.43;91.21;97872.38;18235395;32;20059;-57
2023/08/15 14:02:46;;;;;;;3.40;2.22;;;;;;;29.52;95.54;97861.63;18235032;32;20122;-57
2023/08/15 14:12:49;;;;;;;2.30;1.95;;;;;;;29.18;84.96;97871.00;18234798;32;20110;-57
2023/08/15 14:22:53;;;;;;;2.83;2.25;;;;;;;30.00;67.82;97867.00;18233683;32;20080;-57
2023/08/15 14:32:57;;;;;;;2.67;2.05;;;;;;;30.51;64.42;97867.06;18272666;32;20047;-57
2023/08/15 14:43:01;;;;;;;3.30;2.00;;;;;;;30.73;65.17;97870.66;18232151;32;20050;-57
2023/08/15 14:53:06;;;;;;;3.65;2.35;;;;;;;30.62;57.73;97872.66;18233693;32;20050;-57
2023/08/15 15:03:11;;;;;;;3.05;2.10;;;;;;;30.17;63.21;97865.41;18232171;32;20093;-57
2023/08/15 15:13:15;;;;;;;3.22;2.00;;;;;;;30.05;62.25;97847.09;18232645;32;20092;-57
2023/08/15 15:23:24;;;;;;;3.00;2.00;;;;;;;29.94;65.54;97848.25;18231261;32;20123;-57
2023/08/15 15:33:29;;;;;;;2.75;2.12;;;;;;;29.44;61.63;97846.09;18231808;32;20339;-57
2023/08/15 15:43:33;;;;;;;4.60;1.92;;;;;;;29.04;69.83;97851.47;18230088;32;20074;-57
2023/08/15 15:53:37;;;;;;;3.17;2.15;;;;;;;28.90;68.42;97852.16;18232471;32;20377;-57
2023/08/15 16:03:41;;;;;;;4.07;1.92;;;;;;;28.57;72.57;97851.09;18241417;32;20059;-57
2023/08/15 16:13:45;;;;;;;3.42;2.20;;;;;;;28.28;78.76;97845.31;18240684;32;20105;-57
2023/08/15 16:24:01;;;;;;;2.80;2.33;;;;;;;28.01;82.21;97837.16;18240443;32;20062;-57
2023/08/15 16:34:06;;;;;;;3.92;2.40;;;;;;;27.73;80.34;97835.63;18239873;32;20083;-57
2023/08/15 16:44:18;;;;;;;3.60;2.25;;;;;;;27.63;80.16;97846.63;18237916;32;20118;-57
2023/08/15 16:54:22;;;;;;;2.80;2.00;;;;;;;27.56;82.37;97836.25;18238975;32;20054;-57
2023/08/15 17:04:26;;;;;;;2.22;1.95;;;;;;;28.09;80.96;97853.88;18237075;32;20058;-57
2023/08/15 17:14:31;;;;;;;6.25;2.10;;;;;;;27.76;88.74;97863.84;18224345;32;20088;-57
2023/08/15 17:24:36;;;;;;;2.85;2.10;;;;;;;26.96;93.04;97860.03;18237738;32;20102;-57
2023/08/15 17:34:40;;;;;;;3.03;1.90;;;;;;;26.47;94.18;97875.50;18237252;32;20054;-57
2023/08/15 17:44:44;;;;;;;3.80;2.10;;;;;;;26.17;94.29;97881.72;18235335;32;20054;-57
2023/08/15 17:54:47;;;;;;;3.62;2.50;;;;;;;25.93;94.69;97882.84;18223099;32;20077;-56
2023/08/15 18:04:51;;;;;;;5.00;1.83;;;;;;;25.61;100.00;97877.47;18235557;32;20374;-56
2023/08/15 18:14:54;;;;;;;3.70;2.10;;;;;;;25.23;100.00;97892.91;18234959;32;20572;-57
2023/08/15 18:24:57;;;;;;;3.10;1.87;;;;;;;24.82;100.00;97895.13;18235133;32;20446;-57
2023/08/15 18:35:00;;;;;;;3.90;2.12;;;;;;;24.41;100.00;97897.28;18234695;32;20055;-56
2023/08/15 18:45:04;;;;;;;5.30;2.65;;;;;;;23.99;100.00;97910.41;18232857;32;20054;-56
2023/08/15 18:55:08;;;;;;;3.12;2.30;;;;;;;23.64;100.00;97915.69;18233672;32;20059;-56
2023/08/15 19:05:11;;;;;;;4.43;2.25;;;;;;;23.33;100.00;97917.97;18231926;32;20058;-57
2023/08/15 19:15:18;;;;;;;4.97;2.37;;;;;;;23.08;100.00;97928.22;18232827;32;20105;-57
2023/08/15 19:25:23;;;;;;;2.95;2.17;;;;;;;22.84;100.00;97951.09;18232212;32;20114;-56
2023/08/15 19:35:30;;;;;;;3.17;2.05;;;;;;;22.64;100.00;97950.87;18230519;32;20074;-57
2023/08/15 19:45:33;;;;;;;3.58;2.45;;;;;;;22.46;100.00;97949.44;18231481;32;20343;-56
2023/08/15 19:55:36;;;;;;;4.65;2.30;;;;;;;22.17;100.00;97956.72;18217314;32;20042;-56
2023/08/15 20:05:41;;;;;;;2.87;2.05;;;;;;;21.93;100.00;97952.72;18229267;32;20073;-56
2023/08/15 20:15:45;;;;;;;3.40;2.40;;;;;;;21.74;100.00;97944.16;18229286;32;20172;-56
2023/08/15 20:25:48;;;;;;;3.10;2.37;;;;;;;21.56;100.00;97943.53;18228738;32;20059;-56
2023/08/15 20:35:51;;;;;;;2.85;2.42;;;;;;;21.40;100.00;97940.53;18229877;32;20063;-56
2023/08/15 20:45:54;;;;;;;7.45;2.97;;;;;;;21.20;100.00;97948.44;18237734;32;20390;-56
2023/08/15 20:55:57;;;;;;;;;;;;;;;21.08;100.00;97946.38;18238357;32;20409;-56
2023/08/15 21:06:00;;;;;;;3.22;2.20;;;;;;;20.93;100.00;97947.75;18237575;32;20310;-56
2023/08/15 21:16:03;;;;;;;3.50;2.50;;;;;;;20.76;100.00;97983.56;18238112;32;20117;-56
2023/08/15 21:26:07;;;;;;;3.45;2.50;;;;;;;20.63;100.00;97993.62;18224450;32;20066;-56
2023/08/15 21:36:11;;;;;;;2.97;2.50;;;;;;;20.50;100.00;97998.19;18237213;32;20074;-56
2023/08/15 21:46:14;;;;;;;4.53;2.60;;;;;;;20.31;100.00;98004.84;18236359;32;20107;-57
2023/08/15 21:56:17;;;;;;;4.93;2.47;;;;;;;20.21;100.00;97991.44;18235560;32;20042;-56
2023/08/15 22:06:20;;;;;;;6.57;3.13;;;;;;;20.10;100.00;97990.19;18222458;32;20143;-56
2023/08/15 22:16:23;;;;;;;8.32;2.45;;;;;;;20.00;100.00;97999.56;18235768;32;20050;-57
2023/08/15 22:26:26;;;;;;;3.97;2.30;;;;;;;19.92;100.00;97998.41;18234052;32;20058;-56
2023/08/15 22:36:29;;;;;;;3.90;2.47;;;;;;;19.76;100.00;98002.75;18233608;32;20418;-56
2023/08/15 22:46:32;;;;;;;4.37;2.50;;;;;;;19.67;100.00;98015.69;18232593;32;20064;-57
2023/08/15 22:56:35;;;;;;;3.08;2.37;;;;;;;19.51;100.00;98007.91;18233774;32;20054;-56
2023/08/15 23:06:37;;;;;;;4.97;2.67;;;;;;;19.48;100.00;98003.84;18231736;32;20092;-56
2023/08/15 23:16:40;;;;;;;2.20;2.00;;;;;;;19.44;100.00;98004.84;18232737;32;20104;-56
2023/08/15 23:26:42;;;;;;;5.67;3.00;;;;;;;19.35;100.00;97987.56;18232339;32;20066;-56
2023/08/15 23:47:28;;;;;;;4.05;2.25;;;;;;;19.09;100.00;97952.66;18231093;32;20093;-56
2023/08/15 23:57:32;;;;;;;6.23;2.47;;;;;;;19.01;100.00;97946.06;18231113;32;20088;-56
